createdAt,value
2023-05-27T00:00:56.788Z,14.20
2023-05-27T00:03:26.074Z,14.20
2023-05-27T00:05:55.300Z,14.20
2023-05-27T00:08:24.470Z,14.20
2023-05-27T00:10:53.643Z,14.30
2023-05-27T00:13:22.775Z,14.30
2023-05-27T00:15:52.777Z,14.30
2023-05-27T00:18:22.401Z,14.30
2023-05-27T00:20:51.810Z,14.40
2023-05-27T00:23:21.016Z,14.50
2023-05-27T00:25:50.360Z,14.50
2023-05-27T00:28:19.677Z,14.60
2023-05-27T00:30:48.806Z,14.60
2023-05-27T00:33:18.099Z,14.60
2023-05-27T00:35:47.368Z,14.60
2023-05-27T00:38:16.801Z,14.60
2023-05-27T00:40:47.140Z,14.60
2023-05-27T00:43:16.604Z,14.60
2023-05-27T00:45:45.901Z,14.60
2023-05-27T00:48:15.527Z,14.70
2023-05-27T00:50:44.690Z,14.70
2023-05-27T00:53:14.715Z,14.70
2023-05-27T00:55:44.317Z,14.70
2023-05-27T00:58:14.252Z,14.70
2023-05-27T01:00:43.640Z,14.70
2023-05-27T01:03:13.195Z,14.70
2023-05-27T01:05:42.598Z,14.80
2023-05-27T01:08:23.674Z,14.80
2023-05-27T01:10:55.120Z,14.80
2023-05-27T01:13:47.303Z,14.80
2023-05-27T01:16:18.491Z,14.80
2023-05-27T01:18:49.850Z,14.80
2023-05-27T01:21:19.920Z,14.80
2023-05-27T01:23:50.153Z,14.80
2023-05-27T01:26:19.512Z,14.80
2023-05-27T01:28:48.707Z,14.80
2023-05-27T01:31:22.775Z,14.70
2023-05-27T01:34:04.620Z,14.70
2023-05-27T01:36:46.069Z,14.60
2023-05-27T01:39:16.934Z,14.60
2023-05-27T01:41:47.794Z,14.50
2023-05-27T01:44:18.646Z,14.40
2023-05-27T01:46:48.155Z,14.40
2023-05-27T01:49:17.429Z,14.40
2023-05-27T01:51:46.564Z,14.40
2023-05-27T01:54:15.668Z,14.40
2023-05-27T01:56:45.310Z,14.40
2023-05-27T01:59:16.094Z,14.40
2023-05-27T02:01:45.825Z,14.40
2023-05-27T02:04:14.964Z,14.40
2023-05-27T02:06:44.237Z,14.40
2023-05-27T02:09:14.258Z,14.30
2023-05-27T02:11:43.392Z,14.30
2023-05-27T02:14:12.513Z,14.20
2023-05-27T02:16:41.708Z,14.20
2023-05-27T02:19:11.106Z,14.20
2023-05-27T02:21:40.508Z,14.20
2023-05-27T02:24:09.623Z,14.10
2023-05-27T02:26:38.744Z,14.10
2023-05-27T02:29:07.836Z,14.00
2023-05-27T02:31:37.129Z,14.00
2023-05-27T02:34:08.703Z,13.90
2023-05-27T02:36:38.078Z,13.80
2023-05-27T02:39:07.325Z,13.80
2023-05-27T02:41:37.372Z,13.80
2023-05-27T02:44:07.252Z,13.80
2023-05-27T02:46:36.457Z,13.90
2023-05-27T02:49:05.680Z,13.80
2023-05-27T02:51:37.196Z,13.80
2023-05-27T02:54:06.383Z,13.70
2023-05-27T02:56:35.592Z,13.70
2023-05-27T02:59:04.733Z,13.70
2023-05-27T03:01:33.988Z,13.60
2023-05-27T03:04:03.989Z,13.60
2023-05-27T03:06:34.427Z,13.50
2023-05-27T03:09:04.491Z,13.50
2023-05-27T03:11:33.741Z,13.50
2023-05-27T03:14:02.912Z,13.50
2023-05-27T03:16:32.692Z,13.50
2023-05-27T03:19:01.947Z,13.50
2023-05-27T03:21:32.912Z,13.50
2023-05-27T03:24:02.181Z,13.60
2023-05-27T03:26:31.777Z,13.70
2023-05-27T03:29:03.319Z,13.90
2023-05-27T03:31:33.652Z,14.00
2023-05-27T03:34:07.902Z,14.10
2023-05-27T03:36:38.530Z,14.10
2023-05-27T03:39:07.929Z,14.20
2023-05-27T03:41:38.848Z,14.20
2023-05-27T03:44:08.018Z,14.20
2023-05-27T03:46:37.261Z,14.20
2023-05-27T03:49:06.623Z,14.20
2023-05-27T03:51:36.617Z,14.20
2023-05-27T03:54:05.870Z,14.20
2023-05-27T03:56:34.987Z,14.30
2023-05-27T03:59:04.153Z,14.40
2023-05-27T04:01:33.702Z,14.40
2023-05-27T04:04:02.954Z,14.60
2023-05-27T04:06:34.493Z,14.80
2023-05-27T04:09:04.396Z,15.10
2023-05-27T04:11:33.841Z,15.10
2023-05-27T04:14:03.112Z,15.20
2023-05-27T04:16:34.880Z,15.30
2023-05-27T04:19:04.191Z,15.40
2023-05-27T04:21:34.609Z,15.50
2023-05-27T04:24:04.843Z,15.60
2023-05-27T04:26:34.185Z,15.70
2023-05-27T04:29:04.447Z,15.80
2023-05-27T04:31:35.112Z,15.80
2023-05-27T04:34:08.728Z,15.90
2023-05-27T04:36:39.018Z,15.90
2023-05-27T04:39:14.448Z,15.90
2023-05-27T04:41:46.727Z,16.00
2023-05-27T04:44:22.685Z,16.00
2023-05-27T04:46:53.921Z,16.00
2023-05-27T04:49:23.738Z,16.00
2023-05-27T04:51:53.001Z,16.00
2023-05-27T04:54:24.091Z,16.10
2023-05-27T04:56:53.829Z,16.20
2023-05-27T04:59:46.922Z,16.20
2023-05-27T05:02:23.781Z,16.30
2023-05-27T05:05:29.209Z,16.40
2023-05-27T05:07:59.142Z,16.50
2023-05-27T05:10:28.340Z,16.60
2023-05-27T05:12:57.507Z,16.70
2023-05-27T05:15:26.563Z,16.70
2023-05-27T05:17:59.339Z,16.80
2023-05-27T05:20:30.827Z,16.90
2023-05-27T05:23:00.643Z,17.00
2023-05-27T05:25:31.358Z,17.10
2023-05-27T05:28:00.565Z,17.20
2023-05-27T05:30:29.941Z,17.20
2023-05-27T05:33:00.082Z,17.30
2023-05-27T05:35:33.372Z,17.40
2023-05-27T05:38:17.526Z,17.50
2023-05-27T05:42:07.281Z,17.60
2023-05-27T05:44:36.563Z,17.80
2023-05-27T05:47:05.805Z,17.90
2023-05-27T05:49:36.504Z,18.00
2023-05-27T05:52:06.997Z,18.20
2023-05-27T05:54:36.341Z,18.30
2023-05-27T05:57:06.664Z,18.30
2023-05-27T05:59:35.789Z,18.40
2023-05-27T06:02:05.134Z,18.50
2023-05-27T06:04:34.329Z,18.60
2023-05-27T06:07:04.249Z,18.70
2023-05-27T06:09:51.872Z,18.70
2023-05-27T06:12:29.914Z,18.50
2023-05-27T06:14:59.250Z,18.50
2023-05-27T06:17:35.830Z,18.60
2023-05-27T06:20:05.706Z,18.80
2023-05-27T06:22:36.013Z,18.90
2023-05-27T06:25:31.329Z,19.10
2023-05-27T06:28:05.258Z,19.20
2023-05-27T06:30:34.835Z,19.20
2023-05-27T06:33:06.718Z,19.40
2023-05-27T06:35:37.074Z,19.50
2023-05-27T06:38:06.836Z,19.60
2023-05-27T06:40:36.081Z,19.60
2023-05-27T06:43:05.740Z,19.70
2023-05-27T06:46:03.702Z,19.70
2023-05-27T06:48:53.640Z,19.80
2023-05-27T06:51:22.863Z,20.00
2023-05-27T06:53:52.328Z,20.00
2023-05-27T06:56:28.082Z,20.10
2023-05-27T06:59:15.770Z,20.20
2023-05-27T07:01:45.321Z,20.30
2023-05-27T07:04:17.423Z,20.40
2023-05-27T07:06:54.258Z,20.50
2023-05-27T07:09:23.654Z,20.60
2023-05-27T07:11:52.863Z,20.70
2023-05-27T07:14:47.413Z,20.80
2023-05-27T07:17:16.953Z,20.90
2023-05-27T07:19:46.984Z,20.90
2023-05-27T07:22:19.976Z,21.00
2023-05-27T07:24:49.838Z,21.10
2023-05-27T07:27:20.576Z,21.20
2023-05-27T07:29:57.362Z,21.20
2023-05-27T07:32:39.169Z,21.30
2023-05-27T07:35:08.943Z,21.40
2023-05-27T07:37:38.119Z,21.50
2023-05-27T07:40:07.652Z,21.60
2023-05-27T07:42:40.750Z,21.60
2023-05-27T07:45:10.370Z,21.60
2023-05-27T07:47:39.876Z,21.70
2023-05-27T07:50:09.719Z,21.70
2023-05-27T07:52:42.087Z,21.80
2023-05-27T07:55:24.900Z,21.90
2023-05-27T07:57:56.489Z,22.00
2023-05-27T08:00:29.603Z,22.10
2023-05-27T08:02:59.078Z,22.10
2023-05-27T08:05:42.094Z,22.10
2023-05-27T08:08:23.048Z,22.10
2023-05-27T08:11:10.824Z,22.20
2023-05-27T08:14:00.316Z,22.30
2023-05-27T08:16:48.098Z,22.30
2023-05-27T08:19:40.458Z,22.30
2023-05-27T08:22:38.972Z,22.40
2023-05-27T08:25:27.002Z,22.50
2023-05-27T08:28:15.133Z,22.60
2023-05-27T08:30:51.968Z,22.50
2023-05-27T08:33:28.020Z,22.60
2023-05-27T08:35:57.637Z,22.60
2023-05-27T08:38:27.031Z,22.50
2023-05-27T08:41:04.961Z,22.60
2023-05-27T08:43:35.267Z,22.60
2023-05-27T08:46:05.445Z,22.70
2023-05-27T08:48:34.757Z,22.70
2023-05-27T08:51:04.310Z,22.80
2023-05-27T08:53:34.240Z,22.80
2023-05-27T08:56:03.966Z,22.90
2023-05-27T08:58:35.015Z,22.90
2023-05-27T09:01:06.465Z,23.00
2023-05-27T09:03:36.967Z,23.00
2023-05-27T09:06:06.273Z,23.00
2023-05-27T09:08:49.776Z,23.10
2023-05-27T09:11:30.307Z,23.10
2023-05-27T09:13:59.692Z,23.20
2023-05-27T09:16:28.787Z,23.30
2023-05-27T09:18:58.666Z,23.30
2023-05-27T09:21:28.077Z,23.50
2023-05-27T09:23:59.239Z,23.40
2023-05-27T09:26:28.838Z,23.40
2023-05-27T09:29:02.910Z,23.50
2023-05-27T09:31:32.273Z,23.50
2023-05-27T09:34:11.718Z,23.40
2023-05-27T09:36:47.776Z,23.30
2023-05-27T09:39:19.786Z,23.30
2023-05-27T09:41:56.626Z,23.40
2023-05-27T09:44:30.525Z,23.60
2023-05-27T09:47:03.336Z,23.50
2023-05-27T09:49:36.090Z,23.50
2023-05-27T09:52:11.906Z,23.60
2023-05-27T09:54:41.618Z,23.70
2023-05-27T09:57:12.049Z,23.80
2023-05-27T09:59:41.956Z,23.80
2023-05-27T10:02:18.041Z,23.90
2023-05-27T10:04:49.441Z,24.00
2023-05-27T10:07:31.324Z,24.10
2023-05-27T10:10:02.990Z,24.10
2023-05-27T10:12:32.715Z,24.20
2023-05-27T10:15:02.051Z,24.30
2023-05-27T10:17:53.847Z,24.30
2023-05-27T10:20:42.820Z,24.40
2023-05-27T10:23:24.724Z,24.40
2023-05-27T10:26:01.739Z,24.50
2023-05-27T10:28:42.398Z,24.50
2023-05-27T10:31:15.084Z,24.60
2023-05-27T10:33:47.110Z,24.80
2023-05-27T10:36:18.514Z,24.90
2023-05-27T10:39:05.582Z,25.00
2023-05-27T10:41:42.049Z,25.00
2023-05-27T10:44:11.704Z,25.10
2023-05-27T10:46:42.708Z,25.20
2023-05-27T10:49:15.765Z,25.10
2023-05-27T10:51:48.721Z,25.20
2023-05-27T10:54:28.919Z,25.10
2023-05-27T10:56:59.693Z,25.00
2023-05-27T10:59:39.487Z,25.10
2023-05-27T11:02:08.796Z,25.20
2023-05-27T11:04:38.161Z,25.40
2023-05-27T11:07:07.417Z,25.60
2023-05-27T11:09:49.707Z,25.80
2023-05-27T11:12:24.215Z,25.90
2023-05-27T11:14:55.221Z,26.00
2023-05-27T11:17:26.637Z,26.10
2023-05-27T11:19:56.263Z,26.20
2023-05-27T11:22:25.887Z,26.30
2023-05-27T11:25:03.519Z,26.40
2023-05-27T11:27:36.407Z,26.50
2023-05-27T11:30:11.509Z,26.60
2023-05-27T11:32:48.114Z,26.70
2023-05-27T11:35:19.151Z,26.90
2023-05-27T11:37:54.686Z,27.00
2023-05-27T11:40:23.894Z,27.10
2023-05-27T11:42:54.006Z,27.30
2023-05-27T11:45:23.337Z,27.30
2023-05-27T11:47:54.997Z,27.30
2023-05-27T11:50:28.476Z,27.90
2023-05-27T11:53:05.062Z,28.40
2023-05-27T11:55:34.296Z,28.60
2023-05-27T11:58:03.397Z,28.90
2023-05-27T12:00:32.582Z,29.00
2023-05-27T12:03:01.847Z,29.10
2023-05-27T12:05:34.845Z,28.90
2023-05-27T12:08:04.815Z,28.70
2023-05-27T12:10:34.007Z,28.70
2023-05-27T12:13:07.529Z,28.50
2023-05-27T12:15:37.037Z,28.20
2023-05-27T12:18:06.522Z,28.30
2023-05-27T12:20:35.762Z,28.40
2023-05-27T12:23:04.901Z,28.50
2023-05-27T12:25:34.107Z,28.60
2023-05-27T12:28:03.287Z,28.80
2023-05-27T12:30:32.374Z,29.70
2023-05-27T12:33:02.804Z,33.10
2023-05-27T12:35:32.803Z,34.20
2023-05-27T12:38:02.316Z,36.60
2023-05-27T12:40:31.483Z,38.80
2023-05-27T12:43:01.156Z,40.90
2023-05-27T12:45:30.661Z,42.70
2023-05-27T12:48:00.718Z,44.00
2023-05-27T12:50:30.038Z,45.40
2023-05-27T12:53:00.711Z,46.50
2023-05-27T12:55:30.034Z,47.50
2023-05-27T12:57:59.228Z,48.20
2023-05-27T13:00:29.019Z,49.00
2023-05-27T13:02:58.378Z,49.70
2023-05-27T13:05:27.509Z,50.90
2023-05-27T13:08:00.729Z,52.30
2023-05-27T13:10:30.673Z,53.00
2023-05-27T13:13:01.799Z,53.60
2023-05-27T13:15:31.186Z,54.00
2023-05-27T13:18:00.877Z,54.40
2023-05-27T13:20:31.276Z,54.30
2023-05-27T13:23:02.072Z,55.30
2023-05-27T13:25:32.464Z,56.20
2023-05-27T13:28:01.723Z,56.60
2023-05-27T13:30:31.038Z,57.10
2023-05-27T13:33:00.295Z,56.90
2023-05-27T13:35:29.643Z,56.60
2023-05-27T13:38:01.570Z,57.20
2023-05-27T13:40:30.892Z,54.00
2023-05-27T13:42:59.967Z,48.60
2023-05-27T13:45:29.079Z,44.70
2023-05-27T13:47:58.330Z,43.20
2023-05-27T13:50:29.270Z,44.70
2023-05-27T13:52:58.390Z,43.40
2023-05-27T13:55:27.881Z,46.40
2023-05-27T13:57:57.093Z,49.80
2023-05-27T14:00:26.555Z,51.40
2023-05-27T14:02:55.763Z,52.40
2023-05-27T14:05:25.053Z,51.20
2023-05-27T14:07:54.439Z,46.90
2023-05-27T14:10:23.767Z,43.20
2023-05-27T14:12:52.904Z,40.50
2023-05-27T14:15:21.979Z,38.60
2023-05-27T14:17:51.302Z,37.20
2023-05-27T14:20:20.859Z,35.90
2023-05-27T14:22:50.280Z,34.80
2023-05-27T14:25:20.781Z,33.80
2023-05-27T14:27:49.848Z,32.90
2023-05-27T14:30:19.370Z,32.30
2023-05-27T14:32:48.485Z,32.00
2023-05-27T14:35:17.645Z,31.70
2023-05-27T14:37:46.740Z,31.40
2023-05-27T14:40:15.860Z,31.50
2023-05-27T14:42:45.050Z,34.90
2023-05-27T14:45:14.179Z,38.00
2023-05-27T14:47:43.331Z,39.60
2023-05-27T14:50:12.462Z,40.80
2023-05-27T14:52:41.567Z,39.40
2023-05-27T14:55:10.903Z,38.60
2023-05-27T14:57:40.086Z,39.40
2023-05-27T15:00:10.337Z,42.50
2023-05-27T15:02:39.677Z,45.00
2023-05-27T15:05:10.398Z,46.30
2023-05-27T15:07:41.040Z,46.90
2023-05-27T15:10:10.659Z,47.50
2023-05-27T15:12:48.685Z,48.00
2023-05-27T15:15:25.136Z,48.80
2023-05-27T15:17:54.380Z,49.20
2023-05-27T15:20:23.634Z,49.00
2023-05-27T15:22:52.811Z,49.50
2023-05-27T15:25:21.979Z,49.60
2023-05-27T15:27:51.076Z,49.80
2023-05-27T15:30:20.499Z,49.80
2023-05-27T15:32:49.714Z,49.50
2023-05-27T15:35:19.150Z,49.70
2023-05-27T15:37:48.321Z,49.70
2023-05-27T15:40:17.558Z,49.80
2023-05-27T15:42:46.752Z,49.80
2023-05-27T15:45:16.272Z,49.60
2023-05-27T15:47:45.565Z,49.40
2023-05-27T15:50:15.047Z,49.00
2023-05-27T15:52:44.232Z,48.80
2023-05-27T15:55:13.340Z,48.50
2023-05-27T15:57:42.732Z,48.50
2023-05-27T16:00:12.650Z,48.10
2023-05-27T16:02:41.958Z,47.70
2023-05-27T16:05:14.619Z,47.60
2023-05-27T16:07:44.845Z,47.40
2023-05-27T16:10:14.062Z,47.40
2023-05-27T16:12:43.394Z,47.10
2023-05-27T16:15:13.722Z,46.30
2023-05-27T16:17:43.566Z,43.00
2023-05-27T16:20:13.037Z,40.50
2023-05-27T16:22:42.402Z,39.20
2023-05-27T16:25:11.514Z,37.80
2023-05-27T16:27:40.728Z,35.80
2023-05-27T16:30:10.483Z,34.10
2023-05-27T16:32:39.708Z,32.60
2023-05-27T16:35:09.408Z,32.50
2023-05-27T16:37:39.214Z,34.10
2023-05-27T16:40:09.587Z,35.50
2023-05-27T16:42:38.880Z,36.20
2023-05-27T16:45:09.297Z,35.70
2023-05-27T16:47:38.552Z,33.30
2023-05-27T16:50:08.069Z,31.30
2023-05-27T16:52:37.365Z,30.00
2023-05-27T16:55:07.823Z,29.00
2023-05-27T16:57:36.982Z,28.30
2023-05-27T17:00:07.241Z,27.60
2023-05-27T17:02:36.651Z,27.20
2023-05-27T17:05:06.318Z,26.80
2023-05-27T17:07:35.394Z,26.50
2023-05-27T17:10:04.833Z,26.20
2023-05-27T17:12:33.964Z,25.90
2023-05-27T17:15:03.858Z,25.70
2023-05-27T17:17:35.486Z,25.50
2023-05-27T17:20:08.194Z,25.30
2023-05-27T17:22:37.539Z,25.00
2023-05-27T17:25:07.644Z,24.80
2023-05-27T17:27:36.836Z,24.60
2023-05-27T17:30:06.820Z,24.40
2023-05-27T17:32:35.993Z,24.10
2023-05-27T17:35:05.879Z,23.70
2023-05-27T17:37:35.012Z,23.30
2023-05-27T17:40:08.791Z,22.90
2023-05-27T17:42:38.214Z,22.60
2023-05-27T17:45:07.889Z,22.40
2023-05-27T17:47:37.059Z,22.20
2023-05-27T17:50:06.922Z,22.00
2023-05-27T17:52:36.134Z,21.80
2023-05-27T17:55:05.860Z,21.70
2023-05-27T17:57:36.051Z,21.60
2023-05-27T18:00:06.778Z,21.40
2023-05-27T18:02:36.063Z,21.30
2023-05-27T18:05:05.556Z,21.20
2023-05-27T18:07:34.699Z,21.10
2023-05-27T18:10:04.009Z,21.00
2023-05-27T18:12:33.154Z,20.80
2023-05-27T18:15:02.254Z,20.70
2023-05-27T18:17:33.098Z,20.50
2023-05-27T18:20:02.428Z,20.30
2023-05-27T18:22:32.873Z,20.10
2023-05-27T18:25:01.961Z,20.00
2023-05-27T18:27:31.322Z,20.00
2023-05-27T18:30:00.539Z,19.90
2023-05-27T18:32:29.767Z,19.80
2023-05-27T18:35:01.242Z,19.60
2023-05-27T18:37:31.766Z,19.50
2023-05-27T18:40:00.844Z,19.50
2023-05-27T18:42:32.747Z,19.50
2023-05-27T18:45:02.042Z,19.40
2023-05-27T18:47:31.777Z,19.30
2023-05-27T18:50:00.939Z,19.30
2023-05-27T18:52:30.227Z,19.30
2023-05-27T18:54:59.353Z,19.30
2023-05-27T18:57:28.471Z,19.40
2023-05-27T18:59:57.628Z,19.40
2023-05-27T19:02:26.793Z,19.40
2023-05-27T19:04:55.885Z,19.30
2023-05-27T19:07:24.991Z,19.40
2023-05-27T19:09:54.240Z,19.40
2023-05-27T19:12:23.355Z,19.40
2023-05-27T19:14:54.069Z,19.40
2023-05-27T19:17:23.281Z,19.50
2023-05-27T19:19:52.418Z,19.50
2023-05-27T19:22:22.395Z,19.60
2023-05-27T19:24:51.515Z,19.70
2023-05-27T19:27:21.123Z,19.70
2023-05-27T19:29:50.378Z,19.70
2023-05-27T19:32:19.660Z,19.70
2023-05-27T19:34:48.751Z,19.60
2023-05-27T19:37:18.115Z,19.60
2023-05-27T19:39:47.259Z,19.50
2023-05-27T19:42:17.425Z,19.50
2023-05-27T19:44:47.895Z,19.50
2023-05-27T19:47:17.394Z,19.40
2023-05-27T19:49:47.168Z,19.40
2023-05-27T19:52:16.381Z,19.40
2023-05-27T19:54:45.799Z,19.30
2023-05-27T19:57:15.366Z,19.30
2023-05-27T19:59:44.671Z,19.30
2023-05-27T20:02:13.866Z,19.30
2023-05-27T20:04:43.078Z,19.30
2023-05-27T20:07:12.248Z,19.30
2023-05-27T20:09:41.359Z,19.20
2023-05-27T20:12:10.456Z,19.20
2023-05-27T20:14:39.581Z,19.20
2023-05-27T20:19:38.580Z,19.20
2023-05-27T20:22:07.678Z,19.10
2023-05-27T20:24:36.811Z,19.00
2023-05-27T20:27:06.959Z,18.90
2023-05-27T20:29:36.076Z,18.90
2023-05-27T20:32:05.679Z,18.80
2023-05-27T20:34:34.805Z,18.70
2023-05-27T20:37:04.058Z,18.70
2023-05-27T20:39:33.322Z,18.60
2023-05-27T20:42:02.485Z,18.50
2023-05-27T20:44:31.843Z,18.40
2023-05-27T20:47:04.803Z,18.30
2023-05-27T20:49:34.349Z,18.20
2023-05-27T20:52:03.602Z,18.10
2023-05-27T20:54:34.295Z,18.00
2023-05-27T20:57:03.817Z,17.90
2023-05-27T20:59:33.125Z,17.70
2023-05-27T21:02:10.735Z,17.60
2023-05-27T21:04:43.700Z,17.40
2023-05-27T21:07:12.792Z,17.30
2023-05-27T21:09:42.532Z,17.10
2023-05-27T21:12:11.736Z,17.00
2023-05-27T21:14:40.847Z,16.80
2023-05-27T21:17:10.015Z,16.70
2023-05-27T21:19:39.147Z,16.60
2023-05-27T21:22:10.801Z,16.50
2023-05-27T21:24:40.063Z,16.30
2023-05-27T21:27:11.695Z,16.20
2023-05-27T21:29:41.791Z,16.20
2023-05-27T21:32:11.099Z,16.10
2023-05-27T21:34:40.617Z,16.00
2023-05-27T21:37:09.685Z,15.90
2023-05-27T21:39:38.814Z,15.90
2023-05-27T21:44:37.059Z,15.80
2023-05-27T21:47:06.346Z,15.70
2023-05-27T21:49:35.499Z,15.70
2023-05-27T21:52:04.962Z,15.50
2023-05-27T21:54:34.109Z,15.50
2023-05-27T21:57:03.340Z,15.40
2023-05-27T21:59:32.433Z,15.40
2023-05-27T22:02:01.658Z,15.30
2023-05-27T22:04:31.513Z,15.20
2023-05-27T22:07:00.616Z,15.20
2023-05-27T22:09:29.733Z,15.00
2023-05-27T22:11:58.927Z,15.00
2023-05-27T22:14:28.108Z,14.90
2023-05-27T22:16:57.208Z,14.90
2023-05-27T22:19:26.401Z,14.80
2023-05-27T22:21:55.751Z,14.80
2023-05-27T22:24:25.007Z,14.70
2023-05-27T22:26:54.132Z,14.70
2023-05-27T22:29:23.270Z,14.70
2023-05-27T22:31:52.449Z,14.60
2023-05-27T22:34:21.609Z,14.40
2023-05-27T22:36:50.767Z,14.40
2023-05-27T22:39:20.051Z,14.30
2023-05-27T22:41:49.176Z,14.30
2023-05-27T22:44:18.279Z,14.30
2023-05-27T22:46:47.677Z,14.20
2023-05-27T22:49:16.793Z,14.10
2023-05-27T22:51:45.981Z,14.10
2023-05-27T22:54:15.300Z,14.00
2023-05-27T22:56:44.437Z,13.90
2023-05-27T22:59:13.541Z,13.90
2023-05-27T23:01:42.785Z,13.80
2023-05-27T23:04:12.365Z,13.80
2023-05-27T23:06:42.189Z,13.80
2023-05-27T23:09:11.551Z,13.70
2023-05-27T23:11:40.719Z,13.70
2023-05-27T23:14:09.855Z,13.60
2023-05-27T23:16:39.281Z,13.50
2023-05-27T23:19:08.515Z,13.50
2023-05-27T23:21:39.614Z,13.50
2023-05-27T23:24:08.947Z,13.40
2023-05-27T23:26:39.356Z,13.30
2023-05-27T23:29:08.581Z,13.30
2023-05-27T23:31:38.843Z,13.20
2023-05-27T23:34:08.057Z,13.20
2023-05-27T23:36:38.027Z,13.20
2023-05-27T23:39:07.534Z,13.10
2023-05-27T23:41:36.621Z,13.10
2023-05-27T23:44:06.408Z,13.00
2023-05-27T23:46:35.569Z,13.00
2023-05-27T23:49:04.753Z,13.00
2023-05-27T23:51:33.874Z,13.00
2023-05-27T23:54:03.067Z,12.90
2023-05-27T23:56:32.245Z,12.90
2023-05-27T23:59:01.361Z,12.80
